sensor_id;sensor_type;location;lat;lon;timestamp;P1;durP1;ratioP1;P2;durP2;ratioP2
18239;SDS011;9244;50.828;4.718;2023-06-14T00:02:08;5.57;;;4.43;;
18239;SDS011;9244;50.828;4.718;2023-06-14T00:04:34;6.28;;;4.40;;
18239;SDS011;9244;50.828;4.718;2023-06-14T00:07:00;5.47;;;4.43;;
18239;SDS011;9244;50.828;4.718;2023-06-14T00:09:26;5.68;;;4.50;;
18239;SDS011;9244;50.828;4.718;2023-06-14T00:11:52;6.00;;;4.80;;
18239;SDS011;9244;50.828;4.718;2023-06-14T00:14:17;6.68;;;4.38;;
18239;SDS011;9244;50.828;4.718;2023-06-14T00:16:43;6.57;;;5.07;;
18239;SDS011;9244;50.828;4.718;2023-06-14T00:19:09;5.57;;;4.75;;
18239;SDS011;9244;50.828;4.718;2023-06-14T00:21:36;4.70;;;4.32;;
18239;SDS011;9244;50.828;4.718;2023-06-14T00:24:02;5.82;;;4.93;;
18239;SDS011;9244;50.828;4.718;2023-06-14T00:26:29;6.35;;;4.55;;
18239;SDS011;9244;50.828;4.718;2023-06-14T00:28:54;5.63;;;5.13;;
18239;SDS011;9244;50.828;4.718;2023-06-14T00:31:21;4.97;;;4.32;;
18239;SDS011;9244;50.828;4.718;2023-06-14T00:33:50;8.68;;;5.25;;
18239;SDS011;9244;50.828;4.718;2023-06-14T00:36:15;11.32;;;5.10;;
18239;SDS011;9244;50.828;4.718;2023-06-14T00:38:41;6.93;;;5.30;;
18239;SDS011;9244;50.828;4.718;2023-06-14T00:41:07;8.77;;;5.38;;
18239;SDS011;9244;50.828;4.718;2023-06-14T00:43:32;4.70;;;4.25;;
18239;SDS011;9244;50.828;4.718;2023-06-14T00:45:59;6.38;;;5.20;;
18239;SDS011;9244;50.828;4.718;2023-06-14T00:48:25;5.55;;;5.05;;
18239;SDS011;9244;50.828;4.718;2023-06-14T00:50:52;5.20;;;4.72;;
18239;SDS011;9244;50.828;4.718;2023-06-14T00:53:18;5.10;;;4.70;;
18239;SDS011;9244;50.828;4.718;2023-06-14T00:55:45;5.05;;;4.65;;
18239;SDS011;9244;50.828;4.718;2023-06-14T00:58:12;8.30;;;4.90;;
18239;SDS011;9244;50.828;4.718;2023-06-14T01:00:38;4.75;;;4.35;;
18239;SDS011;9244;50.828;4.718;2023-06-14T01:03:04;5.28;;;4.78;;
18239;SDS011;9244;50.828;4.718;2023-06-14T01:05:30;6.22;;;4.95;;
18239;SDS011;9244;50.828;4.718;2023-06-14T01:08:03;6.82;;;4.93;;
18239;SDS011;9244;50.828;4.718;2023-06-14T01:13:56;5.90;;;4.90;;
18239;SDS011;9244;50.828;4.718;2023-06-14T01:16:26;6.10;;;4.90;;
18239;SDS011;9244;50.828;4.718;2023-06-14T01:18:53;6.50;;;5.20;;
18239;SDS011;9244;50.828;4.718;2023-06-14T01:21:24;6.88;;;5.32;;
18239;SDS011;9244;50.828;4.718;2023-06-14T01:23:51;5.80;;;5.30;;
18239;SDS011;9244;50.828;4.718;2023-06-14T01:26:20;5.90;;;5.15;;
18239;SDS011;9244;50.828;4.718;2023-06-14T01:28:47;6.93;;;5.50;;
18239;SDS011;9244;50.828;4.718;2023-06-14T01:31:16;9.00;;;5.18;;
18239;SDS011;9244;50.828;4.718;2023-06-14T01:33:46;5.78;;;5.13;;
18239;SDS011;9244;50.828;4.718;2023-06-14T01:36:14;7.03;;;5.20;;
18239;SDS011;9244;50.828;4.718;2023-06-14T01:38:41;5.40;;;4.90;;
18239;SDS011;9244;50.828;4.718;2023-06-14T01:41:08;6.53;;;4.95;;
18239;SDS011;9244;50.828;4.718;2023-06-14T01:43:34;12.13;;;5.57;;
18239;SDS011;9244;50.828;4.718;2023-06-14T01:46:01;7.85;;;5.05;;
18239;SDS011;9244;50.828;4.718;2023-06-14T01:48:28;7.07;;;5.55;;
18239;SDS011;9244;50.828;4.718;2023-06-14T01:50:53;5.90;;;5.32;;
18239;SDS011;9244;50.828;4.718;2023-06-14T01:53:19;6.10;;;5.60;;
18239;SDS011;9244;50.828;4.718;2023-06-14T01:55:45;5.40;;;4.90;;
18239;SDS011;9244;50.828;4.718;2023-06-14T01:58:13;7.38;;;5.93;;
18239;SDS011;9244;50.828;4.718;2023-06-14T02:00:41;6.43;;;5.93;;
18239;SDS011;9244;50.828;4.718;2023-06-14T02:03:08;6.00;;;5.50;;
18239;SDS011;9244;50.828;4.718;2023-06-14T02:05:34;7.43;;;5.68;;
18239;SDS011;9244;50.828;4.718;2023-06-14T02:08:00;5.75;;;5.20;;
18239;SDS011;9244;50.828;4.718;2023-06-14T02:10:26;6.93;;;5.75;;
18239;SDS011;9244;50.828;4.718;2023-06-14T02:12:51;7.10;;;5.90;;
18239;SDS011;9244;50.828;4.718;2023-06-14T02:15:17;6.40;;;5.80;;
18239;SDS011;9244;50.828;4.718;2023-06-14T02:17:43;5.63;;;5.13;;
18239;SDS011;9244;50.828;4.718;2023-06-14T02:20:09;6.70;;;5.35;;
18239;SDS011;9244;50.828;4.718;2023-06-14T02:22:36;6.63;;;5.95;;
18239;SDS011;9244;50.828;4.718;2023-06-14T02:25:01;6.47;;;5.88;;
18239;SDS011;9244;50.828;4.718;2023-06-14T02:27:27;7.50;;;5.97;;
18239;SDS011;9244;50.828;4.718;2023-06-14T02:29:53;6.82;;;6.20;;
18239;SDS011;9244;50.828;4.718;2023-06-14T02:32:18;6.07;;;5.55;;
18239;SDS011;9244;50.828;4.718;2023-06-14T02:34:44;5.88;;;5.38;;
18239;SDS011;9244;50.828;4.718;2023-06-14T02:37:09;7.10;;;5.47;;
18239;SDS011;9244;50.828;4.718;2023-06-14T02:39:36;8.52;;;5.28;;
18239;SDS011;9244;50.828;4.718;2023-06-14T02:42:01;6.97;;;6.27;;
18239;SDS011;9244;50.828;4.718;2023-06-14T02:44:27;11.57;;;6.50;;
18239;SDS011;9244;50.828;4.718;2023-06-14T02:46:54;7.38;;;5.68;;
18239;SDS011;9244;50.828;4.718;2023-06-14T02:49:21;7.30;;;5.68;;
18239;SDS011;9244;50.828;4.718;2023-06-14T02:51:47;6.90;;;6.03;;
18239;SDS011;9244;50.828;4.718;2023-06-14T02:54:13;8.40;;;6.32;;
18239;SDS011;9244;50.828;4.718;2023-06-14T02:56:38;6.47;;;5.88;;
18239;SDS011;9244;50.828;4.718;2023-06-14T02:59:04;8.10;;;6.27;;
18239;SDS011;9244;50.828;4.718;2023-06-14T03:01:30;7.28;;;6.32;;
18239;SDS011;9244;50.828;4.718;2023-06-14T03:03:59;11.03;;;6.30;;
18239;SDS011;9244;50.828;4.718;2023-06-14T03:06:25;6.07;;;5.47;;
18239;SDS011;9244;50.828;4.718;2023-06-14T03:08:50;6.90;;;6.20;;
18239;SDS011;9244;50.828;4.718;2023-06-14T03:11:16;7.40;;;6.40;;
18239;SDS011;9244;50.828;4.718;2023-06-14T03:13:45;9.00;;;6.20;;
18239;SDS011;9244;50.828;4.718;2023-06-14T03:16:11;6.70;;;6.10;;
18239;SDS011;9244;50.828;4.718;2023-06-14T03:18:37;7.10;;;6.40;;
18239;SDS011;9244;50.828;4.718;2023-06-14T03:21:03;7.43;;;5.93;;
18239;SDS011;9244;50.828;4.718;2023-06-14T03:23:30;7.10;;;6.40;;
18239;SDS011;9244;50.828;4.718;2023-06-14T03:25:56;7.80;;;6.30;;
18239;SDS011;9244;50.828;4.718;2023-06-14T03:28:22;7.10;;;6.40;;
18239;SDS011;9244;50.828;4.718;2023-06-14T03:30:47;7.57;;;6.80;;
18239;SDS011;9244;50.828;4.718;2023-06-14T03:33:13;7.77;;;6.77;;
18239;SDS011;9244;50.828;4.718;2023-06-14T03:35:40;7.87;;;6.60;;
18239;SDS011;9244;50.828;4.718;2023-06-14T03:38:06;12.90;;;7.07;;
18239;SDS011;9244;50.828;4.718;2023-06-14T03:40:32;8.93;;;6.93;;
18239;SDS011;9244;50.828;4.718;2023-06-14T03:42:57;8.63;;;6.97;;
18239;SDS011;9244;50.828;4.718;2023-06-14T03:45:23;7.63;;;6.80;;
18239;SDS011;9244;50.828;4.718;2023-06-14T03:47:48;8.57;;;7.03;;
18239;SDS011;9244;50.828;4.718;2023-06-14T03:50:15;9.57;;;6.80;;
18239;SDS011;9244;50.828;4.718;2023-06-14T03:52:43;7.63;;;7.00;;
18239;SDS011;9244;50.828;4.718;2023-06-14T03:55:09;7.77;;;7.07;;
18239;SDS011;9244;50.828;4.718;2023-06-14T03:57:35;8.10;;;6.03;;
18239;SDS011;9244;50.828;4.718;2023-06-14T04:00:01;7.97;;;7.23;;
18239;SDS011;9244;50.828;4.718;2023-06-14T04:02:30;8.80;;;6.83;;
18239;SDS011;9244;50.828;4.718;2023-06-14T04:04:55;9.60;;;6.87;;
18239;SDS011;9244;50.828;4.718;2023-06-14T04:07:21;8.57;;;7.20;;
18239;SDS011;9244;50.828;4.718;2023-06-14T04:09:47;7.63;;;6.97;;
18239;SDS011;9244;50.828;4.718;2023-06-14T04:12:13;9.60;;;7.33;;
18239;SDS011;9244;50.828;4.718;2023-06-14T04:14:39;8.05;;;7.25;;
18239;SDS011;9244;50.828;4.718;2023-06-14T04:17:05;7.60;;;6.87;;
18239;SDS011;9244;50.828;4.718;2023-06-14T04:19:31;8.37;;;7.30;;
18239;SDS011;9244;50.828;4.718;2023-06-14T04:21:57;8.17;;;7.10;;
18239;SDS011;9244;50.828;4.718;2023-06-14T04:24:26;9.60;;;7.20;;
18239;SDS011;9244;50.828;4.718;2023-06-14T04:26:57;8.30;;;7.17;;
18239;SDS011;9244;50.828;4.718;2023-06-14T04:29:24;8.00;;;7.20;;
18239;SDS011;9244;50.828;4.718;2023-06-14T04:31:51;8.17;;;7.37;;
18239;SDS011;9244;50.828;4.718;2023-06-14T04:34:19;7.63;;;7.03;;
18239;SDS011;9244;50.828;4.718;2023-06-14T04:36:46;10.30;;;6.43;;
18239;SDS011;9244;50.828;4.718;2023-06-14T04:39:20;8.30;;;7.47;;
18239;SDS011;9244;50.828;4.718;2023-06-14T04:41:46;7.75;;;6.97;;
18239;SDS011;9244;50.828;4.718;2023-06-14T04:44:12;7.75;;;7.07;;
18239;SDS011;9244;50.828;4.718;2023-06-14T04:46:38;9.17;;;6.93;;
18239;SDS011;9244;50.828;4.718;2023-06-14T04:49:17;8.60;;;7.45;;
18239;SDS011;9244;50.828;4.718;2023-06-14T04:51:43;7.53;;;6.77;;
18239;SDS011;9244;50.828;4.718;2023-06-14T04:54:10;8.02;;;7.32;;
18239;SDS011;9244;50.828;4.718;2023-06-14T04:56:39;8.02;;;7.22;;
18239;SDS011;9244;50.828;4.718;2023-06-14T04:59:08;8.23;;;7.07;;
18239;SDS011;9244;50.828;4.718;2023-06-14T05:01:37;10.85;;;7.10;;
18239;SDS011;9244;50.828;4.718;2023-06-14T05:04:03;8.45;;;7.15;;
18239;SDS011;9244;50.828;4.718;2023-06-14T05:06:29;7.97;;;7.28;;
18239;SDS011;9244;50.828;4.718;2023-06-14T05:08:55;9.10;;;8.05;;
18239;SDS011;9244;50.828;4.718;2023-06-14T05:11:21;13.93;;;7.60;;
18239;SDS011;9244;50.828;4.718;2023-06-14T05:13:49;10.90;;;8.20;;
18239;SDS011;9244;50.828;4.718;2023-06-14T05:16:15;9.45;;;7.80;;
18239;SDS011;9244;50.828;4.718;2023-06-14T05:18:41;8.63;;;7.65;;
18239;SDS011;9244;50.828;4.718;2023-06-14T05:21:08;10.98;;;7.32;;
18239;SDS011;9244;50.828;4.718;2023-06-14T05:23:33;12.30;;;7.88;;
18239;SDS011;9244;50.828;4.718;2023-06-14T05:25:59;8.73;;;7.47;;
18239;SDS011;9244;50.828;4.718;2023-06-14T05:28:27;10.50;;;7.60;;
18239;SDS011;9244;50.828;4.718;2023-06-14T05:30:53;11.43;;;7.82;;
18239;SDS011;9244;50.828;4.718;2023-06-14T05:33:18;7.90;;;7.20;;
18239;SDS011;9244;50.828;4.718;2023-06-14T05:35:44;7.78;;;6.82;;
18239;SDS011;9244;50.828;4.718;2023-06-14T05:38:10;8.45;;;7.57;;
18239;SDS011;9244;50.828;4.718;2023-06-14T05:40:36;8.68;;;7.63;;
18239;SDS011;9244;50.828;4.718;2023-06-14T05:43:01;8.02;;;7.30;;
18239;SDS011;9244;50.828;4.718;2023-06-14T05:45:27;7.38;;;6.78;;
18239;SDS011;9244;50.828;4.718;2023-06-14T05:47:52;8.80;;;6.90;;
18239;SDS011;9244;50.828;4.718;2023-06-14T05:50:19;8.50;;;7.68;;
18239;SDS011;9244;50.828;4.718;2023-06-14T05:52:45;9.35;;;7.15;;
18239;SDS011;9244;50.828;4.718;2023-06-14T05:55:11;11.23;;;7.15;;
18239;SDS011;9244;50.828;4.718;2023-06-14T05:57:37;8.32;;;7.35;;
18239;SDS011;9244;50.828;4.718;2023-06-14T06:00:03;7.88;;;7.10;;
18239;SDS011;9244;50.828;4.718;2023-06-14T06:02:42;8.93;;;7.10;;
18239;SDS011;9244;50.828;4.718;2023-06-14T06:05:08;7.57;;;6.85;;
18239;SDS011;9244;50.828;4.718;2023-06-14T06:07:34;11.90;;;6.43;;
18239;SDS011;9244;50.828;4.718;2023-06-14T06:10:01;8.48;;;6.88;;
18239;SDS011;9244;50.828;4.718;2023-06-14T06:12:26;7.78;;;6.63;;
18239;SDS011;9244;50.828;4.718;2023-06-14T06:14:52;8.20;;;7.28;;
18239;SDS011;9244;50.828;4.718;2023-06-14T06:17:18;7.18;;;6.45;;
18239;SDS011;9244;50.828;4.718;2023-06-14T06:19:43;8.27;;;7.00;;
18239;SDS011;9244;50.828;4.718;2023-06-14T06:22:09;7.78;;;7.07;;
18239;SDS011;9244;50.828;4.718;2023-06-14T06:24:35;8.40;;;7.05;;
18239;SDS011;9244;50.828;4.718;2023-06-14T06:27:00;8.00;;;7.30;;
18239;SDS011;9244;50.828;4.718;2023-06-14T06:29:27;7.53;;;6.45;;
18239;SDS011;9244;50.828;4.718;2023-06-14T06:31:52;8.93;;;7.07;;
18239;SDS011;9244;50.828;4.718;2023-06-14T06:34:18;8.20;;;6.38;;
18239;SDS011;9244;50.828;4.718;2023-06-14T06:36:44;7.65;;;6.97;;
18239;SDS011;9244;50.828;4.718;2023-06-14T06:39:09;8.10;;;6.60;;
18239;SDS011;9244;50.828;4.718;2023-06-14T06:44:04;11.00;;;6.40;;
18239;SDS011;9244;50.828;4.718;2023-06-14T06:46:31;7.07;;;6.47;;
18239;SDS011;9244;50.828;4.718;2023-06-14T06:48:57;8.20;;;6.40;;
18239;SDS011;9244;50.828;4.718;2023-06-14T06:51:23;7.28;;;6.47;;
18239;SDS011;9244;50.828;4.718;2023-06-14T06:53:52;9.15;;;6.40;;
18239;SDS011;9244;50.828;4.718;2023-06-14T06:56:19;7.82;;;5.93;;
18239;SDS011;9244;50.828;4.718;2023-06-14T06:58:46;7.15;;;6.45;;
18239;SDS011;9244;50.828;4.718;2023-06-14T07:01:12;6.63;;;5.68;;
18239;SDS011;9244;50.828;4.718;2023-06-14T07:03:38;7.15;;;6.45;;
18239;SDS011;9244;50.828;4.718;2023-06-14T07:06:04;6.93;;;6.22;;
18239;SDS011;9244;50.828;4.718;2023-06-14T07:08:29;6.63;;;5.43;;
18239;SDS011;9244;50.828;4.718;2023-06-14T07:10:55;7.05;;;6.15;;
18239;SDS011;9244;50.828;4.718;2023-06-14T07:13:21;9.35;;;6.35;;
18239;SDS011;9244;50.828;4.718;2023-06-14T07:15:46;8.25;;;5.88;;
18239;SDS011;9244;50.828;4.718;2023-06-14T07:18:12;7.55;;;6.57;;
18239;SDS011;9244;50.828;4.718;2023-06-14T07:20:38;6.60;;;5.90;;
18239;SDS011;9244;50.828;4.718;2023-06-14T07:23:03;7.05;;;6.35;;
18239;SDS011;9244;50.828;4.718;2023-06-14T07:25:30;7.65;;;6.00;;
18239;SDS011;9244;50.828;4.718;2023-06-14T07:27:56;6.30;;;5.45;;
18239;SDS011;9244;50.828;4.718;2023-06-14T07:30:22;6.25;;;5.75;;
18239;SDS011;9244;50.828;4.718;2023-06-14T07:32:51;7.05;;;6.35;;
18239;SDS011;9244;50.828;4.718;2023-06-14T07:35:17;7.28;;;5.82;;
18239;SDS011;9244;50.828;4.718;2023-06-14T07:37:43;5.75;;;5.20;;
18239;SDS011;9244;50.828;4.718;2023-06-14T07:40:10;8.05;;;5.28;;
18239;SDS011;9244;50.828;4.718;2023-06-14T07:42:36;6.82;;;5.22;;
18239;SDS011;9244;50.828;4.718;2023-06-14T07:45:02;7.07;;;5.20;;
18239;SDS011;9244;50.828;4.718;2023-06-14T07:47:29;9.38;;;6.22;;
18239;SDS011;9244;50.828;4.718;2023-06-14T07:49:55;6.50;;;5.65;;
18239;SDS011;9244;50.828;4.718;2023-06-14T07:52:20;7.55;;;5.47;;
18239;SDS011;9244;50.828;4.718;2023-06-14T07:54:46;6.05;;;5.50;;
18239;SDS011;9244;50.828;4.718;2023-06-14T07:57:12;6.03;;;5.40;;
18239;SDS011;9244;50.828;4.718;2023-06-14T07:59:38;7.72;;;4.80;;
18239;SDS011;9244;50.828;4.718;2023-06-14T08:02:04;5.90;;;5.30;;
18239;SDS011;9244;50.828;4.718;2023-06-14T08:04:29;5.80;;;5.30;;
18239;SDS011;9244;50.828;4.718;2023-06-14T08:06:56;5.47;;;4.75;;
18239;SDS011;9244;50.828;4.718;2023-06-14T08:09:22;7.30;;;5.28;;
18239;SDS011;9244;50.828;4.718;2023-06-14T08:11:49;5.75;;;5.18;;
18239;SDS011;9244;50.828;4.718;2023-06-14T08:14:15;7.85;;;5.07;;
18239;SDS011;9244;50.828;4.718;2023-06-14T08:16:40;8.02;;;5.32;;
18239;SDS011;9244;50.828;4.718;2023-06-14T08:19:06;9.23;;;5.15;;
18239;SDS011;9244;50.828;4.718;2023-06-14T08:21:32;5.97;;;4.85;;
18239;SDS011;9244;50.828;4.718;2023-06-14T08:23:58;5.80;;;5.30;;
18239;SDS011;9244;50.828;4.718;2023-06-14T08:26:24;7.80;;;5.50;;
18239;SDS011;9244;50.828;4.718;2023-06-14T08:28:54;6.18;;;5.40;;
18239;SDS011;9244;50.828;4.718;2023-06-14T08:31:20;7.45;;;5.53;;
18239;SDS011;9244;50.828;4.718;2023-06-14T08:33:45;8.27;;;5.35;;
18239;SDS011;9244;50.828;4.718;2023-06-14T08:36:11;7.95;;;5.28;;
18239;SDS011;9244;50.828;4.718;2023-06-14T08:38:37;7.75;;;5.30;;
18239;SDS011;9244;50.828;4.718;2023-06-14T08:41:04;8.75;;;5.35;;
18239;SDS011;9244;50.828;4.718;2023-06-14T08:43:31;9.25;;;5.40;;
18239;SDS011;9244;50.828;4.718;2023-06-14T08:46:00;11.43;;;6.03;;
18239;SDS011;9244;50.828;4.718;2023-06-14T08:48:29;8.88;;;5.90;;
18239;SDS011;9244;50.828;4.718;2023-06-14T08:50:59;6.85;;;5.95;;
18239;SDS011;9244;50.828;4.718;2023-06-14T08:53:31;8.70;;;6.07;;
18239;SDS011;9244;50.828;4.718;2023-06-14T08:55:59;6.97;;;5.85;;
18239;SDS011;9244;50.828;4.718;2023-06-14T08:58:27;9.20;;;5.63;;
18239;SDS011;9244;50.828;4.718;2023-06-14T09:00:54;8.35;;;5.35;;
18239;SDS011;9244;50.828;4.718;2023-06-14T09:03:21;7.80;;;4.95;;
18239;SDS011;9244;50.828;4.718;2023-06-14T09:05:48;6.07;;;5.22;;
18239;SDS011;9244;50.828;4.718;2023-06-14T09:08:15;7.30;;;5.55;;
18239;SDS011;9244;50.828;4.718;2023-06-14T09:10:41;8.02;;;5.75;;
18239;SDS011;9244;50.828;4.718;2023-06-14T09:13:06;8.98;;;5.78;;
18239;SDS011;9244;50.828;4.718;2023-06-14T09:15:33;7.18;;;5.32;;
18239;SDS011;9244;50.828;4.718;2023-06-14T09:18:03;6.57;;;5.40;;
18239;SDS011;9244;50.828;4.718;2023-06-14T09:20:29;6.20;;;5.53;;
18239;SDS011;9244;50.828;4.718;2023-06-14T09:22:56;6.82;;;5.53;;
18239;SDS011;9244;50.828;4.718;2023-06-14T09:25:22;9.07;;;5.30;;
18239;SDS011;9244;50.828;4.718;2023-06-14T09:27:51;8.68;;;5.03;;
18239;SDS011;9244;50.828;4.718;2023-06-14T09:30:19;8.00;;;4.93;;
18239;SDS011;9244;50.828;4.718;2023-06-14T09:32:45;6.93;;;5.47;;
18239;SDS011;9244;50.828;4.718;2023-06-14T09:35:11;6.22;;;5.03;;
18239;SDS011;9244;50.828;4.718;2023-06-14T09:37:37;7.75;;;4.70;;
18239;SDS011;9244;50.828;4.718;2023-06-14T09:40:04;6.20;;;4.53;;
18239;SDS011;9244;50.828;4.718;2023-06-14T09:42:31;4.90;;;4.32;;
18239;SDS011;9244;50.828;4.718;2023-06-14T09:45:00;10.23;;;4.60;;
18239;SDS011;9244;50.828;4.718;2023-06-14T09:47:28;6.18;;;5.07;;
18239;SDS011;9244;50.828;4.718;2023-06-14T09:49:53;5.78;;;4.93;;
18239;SDS011;9244;50.828;4.718;2023-06-14T09:52:21;7.20;;;5.10;;
18239;SDS011;9244;50.828;4.718;2023-06-14T09:54:48;8.60;;;4.88;;
18239;SDS011;9244;50.828;4.718;2023-06-14T09:57:15;8.05;;;4.85;;
18239;SDS011;9244;50.828;4.718;2023-06-14T09:59:45;6.97;;;4.55;;
18239;SDS011;9244;50.828;4.718;2023-06-14T10:02:34;5.65;;;4.80;;
18239;SDS011;9244;50.828;4.718;2023-06-14T10:05:06;8.32;;;4.85;;
18239;SDS011;9244;50.828;4.718;2023-06-14T10:07:44;5.97;;;4.80;;
18239;SDS011;9244;50.828;4.718;2023-06-14T10:10:17;6.43;;;4.68;;
18239;SDS011;9244;50.828;4.718;2023-06-14T10:12:43;6.75;;;4.70;;
18239;SDS011;9244;50.828;4.718;2023-06-14T10:15:09;5.38;;;4.28;;
18239;SDS011;9244;50.828;4.718;2023-06-14T10:17:59;6.00;;;4.43;;
18239;SDS011;9244;50.828;4.718;2023-06-14T10:20:37;8.95;;;4.63;;
18239;SDS011;9244;50.828;4.718;2023-06-14T10:23:20;5.22;;;4.15;;
18239;SDS011;9244;50.828;4.718;2023-06-14T10:25:56;5.85;;;4.15;;
18239;SDS011;9244;50.828;4.718;2023-06-14T10:28:22;5.97;;;4.55;;
18239;SDS011;9244;50.828;4.718;2023-06-14T10:31:02;6.30;;;4.10;;
18239;SDS011;9244;50.828;4.718;2023-06-14T10:33:36;6.30;;;3.92;;
18239;SDS011;9244;50.828;4.718;2023-06-14T10:36:25;5.05;;;4.00;;
18239;SDS011;9244;50.828;4.718;2023-06-14T10:41:32;7.95;;;3.83;;
18239;SDS011;9244;50.828;4.718;2023-06-14T10:46:39;8.38;;;4.50;;
18239;SDS011;9244;50.828;4.718;2023-06-14T10:49:05;7.32;;;3.85;;
18239;SDS011;9244;50.828;4.718;2023-06-14T10:51:41;7.43;;;4.20;;
18239;SDS011;9244;50.828;4.718;2023-06-14T10:54:11;7.60;;;4.10;;
18239;SDS011;9244;50.828;4.718;2023-06-14T10:56:38;7.82;;;3.80;;
18239;SDS011;9244;50.828;4.718;2023-06-14T10:59:18;4.53;;;3.30;;
18239;SDS011;9244;50.828;4.718;2023-06-14T11:04:20;6.13;;;3.33;;
18239;SDS011;9244;50.828;4.718;2023-06-14T11:06:49;4.47;;;3.67;;
18239;SDS011;9244;50.828;4.718;2023-06-14T11:12:14;4.65;;;3.90;;
18239;SDS011;9244;50.828;4.718;2023-06-14T11:14:42;5.57;;;3.88;;
18239;SDS011;9244;50.828;4.718;2023-06-14T11:17:12;4.70;;;3.35;;
18239;SDS011;9244;50.828;4.718;2023-06-14T11:19:37;4.55;;;3.50;;
18239;SDS011;9244;50.828;4.718;2023-06-14T11:22:03;3.88;;;3.05;;
18239;SDS011;9244;50.828;4.718;2023-06-14T11:24:29;10.00;;;3.85;;
18239;SDS011;9244;50.828;4.718;2023-06-14T11:26:57;5.28;;;3.50;;
18239;SDS011;9244;50.828;4.718;2023-06-14T11:29:23;5.78;;;3.25;;
18239;SDS011;9244;50.828;4.718;2023-06-14T11:31:49;4.80;;;3.35;;
18239;SDS011;9244;50.828;4.718;2023-06-14T11:34:15;5.88;;;3.83;;
18239;SDS011;9244;50.828;4.718;2023-06-14T11:36:41;5.72;;;3.30;;
18239;SDS011;9244;50.828;4.718;2023-06-14T11:39:07;7.63;;;3.40;;
18239;SDS011;9244;50.828;4.718;2023-06-14T11:41:41;5.50;;;3.08;;
18239;SDS011;9244;50.828;4.718;2023-06-14T11:44:08;8.60;;;3.15;;
18239;SDS011;9244;50.828;4.718;2023-06-14T11:46:34;5.30;;;3.67;;
18239;SDS011;9244;50.828;4.718;2023-06-14T11:49:01;6.35;;;3.50;;
18239;SDS011;9244;50.828;4.718;2023-06-14T11:51:32;4.25;;;3.17;;
18239;SDS011;9244;50.828;4.718;2023-06-14T11:53:59;4.60;;;3.78;;
18239;SDS011;9244;50.828;4.718;2023-06-14T11:56:26;4.43;;;3.28;;
18239;SDS011;9244;50.828;4.718;2023-06-14T11:58:52;7.05;;;3.50;;
18239;SDS011;9244;50.828;4.718;2023-06-14T12:01:21;6.53;;;3.25;;
18239;SDS011;9244;50.828;4.718;2023-06-14T12:03:47;4.43;;;3.30;;
18239;SDS011;9244;50.828;4.718;2023-06-14T12:06:14;8.23;;;2.90;;
18239;SDS011;9244;50.828;4.718;2023-06-14T12:08:40;4.20;;;3.30;;
18239;SDS011;9244;50.828;4.718;2023-06-14T12:11:11;9.63;;;3.42;;
18239;SDS011;9244;50.828;4.718;2023-06-14T12:13:38;6.53;;;3.30;;
18239;SDS011;9244;50.828;4.718;2023-06-14T12:16:08;4.30;;;3.20;;
18239;SDS011;9244;50.828;4.718;2023-06-14T12:18:38;6.30;;;3.10;;
18239;SDS011;9244;50.828;4.718;2023-06-14T12:21:05;5.95;;;3.25;;
18239;SDS011;9244;50.828;4.718;2023-06-14T12:23:47;4.50;;;3.05;;
18239;SDS011;9244;50.828;4.718;2023-06-14T12:26:18;5.43;;;3.10;;
18239;SDS011;9244;50.828;4.718;2023-06-14T12:28:44;3.08;;;2.78;;
18239;SDS011;9244;50.828;4.718;2023-06-14T12:31:11;3.67;;;2.95;;
18239;SDS011;9244;50.828;4.718;2023-06-14T12:33:39;6.57;;;3.30;;
18239;SDS011;9244;50.828;4.718;2023-06-14T12:36:06;5.03;;;3.03;;
18239;SDS011;9244;50.828;4.718;2023-06-14T12:38:33;3.33;;;2.50;;
18239;SDS011;9244;50.828;4.718;2023-06-14T12:40:58;4.35;;;2.80;;
18239;SDS011;9244;50.828;4.718;2023-06-14T12:43:25;3.60;;;2.67;;
18239;SDS011;9244;50.828;4.718;2023-06-14T12:45:51;6.43;;;2.70;;
18239;SDS011;9244;50.828;4.718;2023-06-14T12:48:17;4.72;;;2.30;;
18239;SDS011;9244;50.828;4.718;2023-06-14T12:50:42;3.70;;;2.72;;
18239;SDS011;9244;50.828;4.718;2023-06-14T12:53:08;2.65;;;2.45;;
18239;SDS011;9244;50.828;4.718;2023-06-14T12:55:34;8.85;;;2.33;;
18239;SDS011;9244;50.828;4.718;2023-06-14T12:58:00;7.90;;;3.03;;
18239;SDS011;9244;50.828;4.718;2023-06-14T13:00:26;4.43;;;2.85;;
18239;SDS011;9244;50.828;4.718;2023-06-14T13:02:51;2.88;;;2.53;;
18239;SDS011;9244;50.828;4.718;2023-06-14T13:05:17;4.38;;;2.25;;
18239;SDS011;9244;50.828;4.718;2023-06-14T13:07:43;3.08;;;2.53;;
18239;SDS011;9244;50.828;4.718;2023-06-14T13:10:09;4.90;;;2.55;;
18239;SDS011;9244;50.828;4.718;2023-06-14T13:12:35;3.50;;;2.20;;
18239;SDS011;9244;50.828;4.718;2023-06-14T13:15:01;2.78;;;2.00;;
18239;SDS011;9244;50.828;4.718;2023-06-14T13:17:26;2.17;;;1.73;;
18239;SDS011;9244;50.828;4.718;2023-06-14T13:19:52;3.80;;;2.10;;
18239;SDS011;9244;50.828;4.718;2023-06-14T13:22:18;4.93;;;2.40;;
18239;SDS011;9244;50.828;4.718;2023-06-14T13:24:44;2.85;;;2.00;;
18239;SDS011;9244;50.828;4.718;2023-06-14T13:27:09;2.30;;;1.73;;
18239;SDS011;9244;50.828;4.718;2023-06-14T13:29:35;3.58;;;1.70;;
18239;SDS011;9244;50.828;4.718;2023-06-14T13:32:02;3.95;;;1.83;;
18239;SDS011;9244;50.828;4.718;2023-06-14T13:34:28;3.65;;;1.42;;
18239;SDS011;9244;50.828;4.718;2023-06-14T13:36:53;2.60;;;1.48;;
18239;SDS011;9244;50.828;4.718;2023-06-14T13:39:19;2.28;;;1.58;;
18239;SDS011;9244;50.828;4.718;2023-06-14T13:41:45;4.22;;;1.70;;
18239;SDS011;9244;50.828;4.718;2023-06-14T13:44:11;2.63;;;1.75;;
18239;SDS011;9244;50.828;4.718;2023-06-14T13:46:39;2.22;;;1.55;;
18239;SDS011;9244;50.828;4.718;2023-06-14T13:49:05;3.83;;;1.60;;
18239;SDS011;9244;50.828;4.718;2023-06-14T13:51:31;3.20;;;1.52;;
18239;SDS011;9244;50.828;4.718;2023-06-14T13:53:58;3.13;;;1.65;;
18239;SDS011;9244;50.828;4.718;2023-06-14T13:56:23;2.90;;;1.60;;
18239;SDS011;9244;50.828;4.718;2023-06-14T13:58:49;1.65;;;1.55;;
18239;SDS011;9244;50.828;4.718;2023-06-14T14:01:16;4.30;;;1.88;;
18239;SDS011;9244;50.828;4.718;2023-06-14T14:03:43;4.18;;;1.48;;
18239;SDS011;9244;50.828;4.718;2023-06-14T14:06:10;3.63;;;1.60;;
18239;SDS011;9244;50.828;4.718;2023-06-14T14:08:35;1.70;;;1.60;;
18239;SDS011;9244;50.828;4.718;2023-06-14T14:11:01;3.63;;;1.58;;
18239;SDS011;9244;50.828;4.718;2023-06-14T14:13:27;3.47;;;1.50;;
18239;SDS011;9244;50.828;4.718;2023-06-14T14:15:53;4.40;;;1.90;;
18239;SDS011;9244;50.828;4.718;2023-06-14T14:18:19;3.95;;;1.95;;
18239;SDS011;9244;50.828;4.718;2023-06-14T14:20:46;3.90;;;1.80;;
18239;SDS011;9244;50.828;4.718;2023-06-14T14:23:12;2.05;;;1.80;;
18239;SDS011;9244;50.828;4.718;2023-06-14T14:25:37;3.10;;;1.55;;
18239;SDS011;9244;50.828;4.718;2023-06-14T14:28:03;2.75;;;1.80;;
18239;SDS011;9244;50.828;4.718;2023-06-14T14:30:28;4.18;;;1.95;;
18239;SDS011;9244;50.828;4.718;2023-06-14T14:32:54;3.58;;;1.83;;
18239;SDS011;9244;50.828;4.718;2023-06-14T14:35:20;4.22;;;1.80;;
18239;SDS011;9244;50.828;4.718;2023-06-14T14:37:48;2.05;;;1.60;;
18239;SDS011;9244;50.828;4.718;2023-06-14T14:40:14;3.67;;;1.80;;
18239;SDS011;9244;50.828;4.718;2023-06-14T14:42:39;2.10;;;1.77;;
18239;SDS011;9244;50.828;4.718;2023-06-14T14:45:05;3.15;;;1.65;;
18239;SDS011;9244;50.828;4.718;2023-06-14T14:47:31;4.53;;;1.92;;
18239;SDS011;9244;50.828;4.718;2023-06-14T14:49:57;2.35;;;1.67;;
18239;SDS011;9244;50.828;4.718;2023-06-14T14:52:23;3.85;;;1.73;;
18239;SDS011;9244;50.828;4.718;2023-06-14T14:54:49;3.92;;;2.20;;
18239;SDS011;9244;50.828;4.718;2023-06-14T14:57:15;4.50;;;2.15;;
18239;SDS011;9244;50.828;4.718;2023-06-14T14:59:41;1.92;;;1.73;;
18239;SDS011;9244;50.828;4.718;2023-06-14T15:02:06;3.45;;;1.65;;
18239;SDS011;9244;50.828;4.718;2023-06-14T15:04:32;4.20;;;1.70;;
18239;SDS011;9244;50.828;4.718;2023-06-14T15:06:57;3.03;;;1.77;;
18239;SDS011;9244;50.828;4.718;2023-06-14T15:09:23;2.30;;;2.10;;
18239;SDS011;9244;50.828;4.718;2023-06-14T15:11:49;1.73;;;1.63;;
18239;SDS011;9244;50.828;4.718;2023-06-14T15:14:14;3.50;;;1.65;;
18239;SDS011;9244;50.828;4.718;2023-06-14T15:16:40;2.70;;;1.70;;